Time;durP1;ratioP1;P1;durP2;ratioP2;P2;SDS_P1;SDS_P2;PMS_P1;PMS_P2;Temp;Humidity;BMP_temperature;BMP_pressure;BME280_temperature;BME280_humidity;BME280_pressure;Samples;Min_cycle;Max_cycle;Signal;HPM_P1;HPM_P2
2023/12/05 00:02:09;;;;;;;20.23;6.82;;;;;;;;;;5146786;27;20212;-48
2023/12/05 00:04:37;;;;;;;16.95;6.70;;;;;;;;;;5148490;27;20174;-50
2023/12/05 00:07:03;;;;;;;19.15;5.68;;;;;;;;;;5148085;27;20035;-54
2023/12/05 00:09:30;;;;;;;13.73;5.75;;;;;;;;;;5148191;27;20043;-48
2023/12/05 00:11:57;;;;;;;14.70;6.35;;;;;;;;;;5148130;27;20011;-48
2023/12/05 00:14:24;;;;;;;17.67;6.07;;;;;;;;;;5148209;27;20035;-46
2023/12/05 00:16:51;;;;;;;13.00;6.10;;;;;;;;;;5147934;27;20078;-44
2023/12/05 00:19:18;;;;;;;14.68;5.32;;;;;;;;;;5147740;27;20042;-51
2023/12/05 00:21:45;;;;;;;10.10;4.90;;;;;;;;;;5147637;27;20043;-51
2023/12/05 00:24:11;;;;;;;14.68;5.63;;;;;;;;;;5147963;27;20049;-48
2023/12/05 00:26:38;;;;;;;9.25;4.90;;;;;;;;;;5147750;27;20026;-48
2023/12/05 00:29:05;;;;;;;13.20;4.55;;;;;;;;;;5147420;27;20048;-49
2023/12/05 00:31:34;;;;;;;16.63;5.18;;;;;;;;;;5147672;27;20011;-49
2023/12/05 00:34:01;;;;;;;28.10;6.38;;;;;;;;;;5146850;27;20027;-46
2023/12/05 00:36:27;;;;;;;30.30;6.05;;;;;;;;;;5147162;27;20319;-45
2023/12/05 00:38:55;;;;;;;23.10;5.53;;;;;;;;;;5147084;27;20027;-51
2023/12/05 00:41:24;;;;;;;19.33;4.90;;;;;;;;;;5147581;27;20176;-45
2023/12/05 00:43:52;;;;;;;16.02;5.35;;;;;;;;;;5147459;27;20030;-44
2023/12/05 00:46:21;;;;;;;17.38;5.40;;;;;;;;;;5147178;27;20019;-51
2023/12/05 00:48:47;;;;;;;28.20;6.38;;;;;;;;;;5147150;27;20079;-49
2023/12/05 00:51:14;;;;;;;18.42;5.97;;;;;;;;;;5147088;27;20049;-48
2023/12/05 00:53:42;;;;;;;18.83;6.07;;;;;;;;;;5147378;27;20019;-52
2023/12/05 00:56:14;;;;;;;22.15;6.13;;;;;;;;;;5147038;27;20026;-50
2023/12/05 00:58:41;;;;;;;25.33;5.97;;;;;;;;;;5146947;27;20035;-49
2023/12/05 01:01:09;;;;;;;20.77;7.07;;;;;;;;;;5146777;27;20068;-44
2023/12/05 01:03:36;;;;;;;24.73;6.88;;;;;;;;;;5138468;27;20050;-45
2023/12/05 01:06:03;;;;;;;18.00;6.90;;;;;;;;;;5146699;27;20050;-42
2023/12/05 01:08:30;;;;;;;23.60;6.43;;;;;;;;;;5146901;27;20031;-48
2023/12/05 01:10:58;;;;;;;16.58;6.07;;;;;;;;;;5146448;27;20019;-47
2023/12/05 01:13:26;;;;;;;26.23;6.55;;;;;;;;;;5146686;27;20086;-46
2023/12/05 01:15:53;;;;;;;21.92;6.25;;;;;;;;;;5146246;27;20019;-45
2023/12/05 01:18:19;;;;;;;21.10;6.65;;;;;;;;;;5146039;27;20050;-53
2023/12/05 01:20:46;;;;;;;20.55;6.53;;;;;;;;;;5146291;27;20347;-50
2023/12/05 01:23:13;;;;;;;25.50;6.30;;;;;;;;;;5146361;27;20030;-43
2023/12/05 01:25:41;;;;;;;21.40;6.63;;;;;;;;;;5146344;27;20042;-49
2023/12/05 01:28:07;;;;;;;19.58;6.90;;;;;;;;;;5146260;27;20042;-51
2023/12/05 01:30:36;;;;;;;25.75;6.95;;;;;;;;;;5137580;27;20041;-51
2023/12/05 01:33:04;;;;;;;25.27;7.70;;;;;;;;;;5145622;27;20019;-48
2023/12/05 01:35:31;;;;;;;20.73;7.88;;;;;;;;;;5146231;27;20046;-44
2023/12/05 01:37:58;;;;;;;19.60;6.57;;;;;;;;;;5136865;27;20236;-53
2023/12/05 01:40:24;;;;;;;20.33;6.60;;;;;;;;;;5111880;28;20304;-53
2023/12/05 01:42:51;;;;;;;17.08;6.63;;;;;;;;;;5125184;28;20076;-55
2023/12/05 01:45:18;;;;;;;22.42;7.78;;;;;;;;;;5125044;28;20027;-53
2023/12/05 01:47:45;;;;;;;18.67;8.95;;;;;;;;;;5124906;28;20046;-57
2023/12/05 01:50:14;;;;;;;19.05;8.73;;;;;;;;;;5123522;27;20046;-56
2023/12/05 01:52:42;;;;;;;20.65;8.13;;;;;;;;;;5114323;28;20027;-54
2023/12/05 01:55:10;;;;;;;18.23;6.80;;;;;;;;;;5121211;27;20058;-53
2023/12/05 01:57:37;;;;;;;15.45;6.07;;;;;;;;;;5135318;27;20226;-52
2023/12/05 02:00:09;;;;;;;21.10;5.95;;;;;;;;;;5134426;27;20027;-55
2023/12/05 02:02:36;;;;;;;19.40;5.10;;;;;;;;;;5114195;28;20028;-53
2023/12/05 02:05:04;;;;;;;27.35;5.15;;;;;;;;;;5099016;28;20232;-54
2023/12/05 02:07:31;;;;;;;20.27;5.28;;;;;;;;;;5113209;28;20028;-53
2023/12/05 02:09:58;;;;;;;11.35;4.25;;;;;;;;;;5106942;28;20042;-57
2023/12/05 02:12:24;;;;;;;13.88;4.38;;;;;;;;;;5117989;28;20031;-51
2023/12/05 02:14:51;;;;;;;9.50;4.25;;;;;;;;;;5105175;28;20035;-52
2023/12/05 02:17:37;;;;;;;11.23;3.90;;;;;;;;;;5103982;28;20024;-54
2023/12/05 02:20:11;;;;;;;14.05;3.97;;;;;;;;;;5104345;28;20032;-55
2023/12/05 02:22:47;;;;;;;19.33;4.00;;;;;;;;;;5104161;28;20099;-55
2023/12/05 02:25:22;;;;;;;12.98;3.45;;;;;;;;;;5132573;28;20207;-55
2023/12/05 02:27:49;;;;;;;6.72;3.53;;;;;;;;;;5115329;28;20012;-53
2023/12/05 02:30:16;;;;;;;7.30;2.97;;;;;;;;;;5118075;28;20043;-52
2023/12/05 02:32:43;;;;;;;9.18;2.88;;;;;;;;;;5115441;28;20078;-54
2023/12/05 02:35:13;;;;;;;5.82;3.05;;;;;;;;;;5108512;28;20031;-57
2023/12/05 02:37:58;;;;;;;8.30;2.55;;;;;;;;;;5107897;28;20378;-64
2023/12/05 02:40:28;;;;;;;6.97;2.75;;;;;;;;;;5111878;28;20148;-64
2023/12/05 02:42:56;;;;;;;6.80;2.70;;;;;;;;;;5113135;28;20024;-63
2023/12/05 02:45:25;;;;;;;5.70;2.53;;;;;;;;;;5109305;28;20204;-64
2023/12/05 02:47:54;;;;;;;7.40;2.80;;;;;;;;;;5112531;28;20009;-62
2023/12/05 02:50:21;;;;;;;8.63;2.95;;;;;;;;;;5129934;28;20058;-63
2023/12/05 02:52:48;;;;;;;8.25;2.75;;;;;;;;;;5128964;28;20109;-63
2023/12/05 02:55:15;;;;;;;3.50;2.20;;;;;;;;;;5140784;28;20064;-63
2023/12/05 02:57:41;;;;;;;5.43;2.40;;;;;;;;;;5115627;28;20028;-63
2023/12/05 03:00:08;;;;;;;3.75;2.03;;;;;;;;;;5124118;27;20023;-62
2023/12/05 03:02:37;;;;;;;6.60;2.83;;;;;;;;;;5114567;28;20027;-62
2023/12/05 03:05:04;;;;;;;5.50;1.98;;;;;;;;;;5117581;28;20028;-61
2023/12/05 03:07:31;;;;;;;4.30;2.15;;;;;;;;;;5122235;28;20279;-64
2023/12/05 03:10:01;;;;;;;3.40;1.73;;;;;;;;;;5119823;28;20023;-64
2023/12/05 03:12:28;;;;;;;7.13;2.00;;;;;;;;;;5137011;27;20019;-64
2023/12/05 03:14:55;;;;;;;10.88;2.05;;;;;;;;;;5128659;27;20046;-63
2023/12/05 03:17:22;;;;;;;6.82;1.98;;;;;;;;;;5127672;28;20028;-63
2023/12/05 03:19:49;;;;;;;6.38;1.90;;;;;;;;;;5128130;28;20031;-63
2023/12/05 03:22:15;;;;;;;3.72;1.60;;;;;;;;;;5127321;28;20048;-63
2023/12/05 03:24:43;;;;;;;5.57;1.85;;;;;;;;;;5127663;28;20027;-62
2023/12/05 03:27:10;;;;;;;3.50;1.92;;;;;;;;;;5120349;28;20035;-62
2023/12/05 03:29:36;;;;;;;6.65;2.05;;;;;;;;;;5118306;27;20028;-61
2023/12/05 03:32:04;;;;;;;3.83;1.67;;;;;;;;;;5116843;28;20039;-62
2023/12/05 03:34:31;;;;;;;6.05;1.88;;;;;;;;;;5107123;28;20032;-63
2023/12/05 03:36:58;;;;;;;3.88;1.70;;;;;;;;;;5107036;28;20057;-67
2023/12/05 03:39:24;;;;;;;5.68;1.65;;;;;;;;;;5107002;28;20035;-62
2023/12/05 03:41:51;;;;;;;2.63;1.65;;;;;;;;;;5106817;28;20064;-62
2023/12/05 03:44:18;;;;;;;3.53;1.70;;;;;;;;;;5106932;28;20312;-61
2023/12/05 03:46:44;;;;;;;2.95;1.80;;;;;;;;;;5106769;28;20047;-61
2023/12/05 03:49:11;;;;;;;4.40;2.28;;;;;;;;;;5106887;28;20039;-61
2023/12/05 03:51:38;;;;;;;2.47;1.60;;;;;;;;;;5106740;28;20020;-62
2023/12/05 03:54:05;;;;;;;6.22;2.20;;;;;;;;;;5106735;28;20069;-62
2023/12/05 03:56:31;;;;;;;3.83;1.73;;;;;;;;;;5106618;28;20089;-63
2023/12/05 03:58:58;;;;;;;3.63;1.73;;;;;;;;;;5106523;28;20209;-62
2023/12/05 04:01:25;;;;;;;2.88;1.80;;;;;;;;;;5106561;28;20023;-62
2023/12/05 04:03:51;;;;;;;4.95;2.00;;;;;;;;;;5106438;28;20071;-62
2023/12/05 04:06:21;;;;;;;6.90;1.80;;;;;;;;;;5106344;28;20016;-63
2023/12/05 04:08:49;;;;;;;5.00;1.90;;;;;;;;;;5106234;28;20196;-63
2023/12/05 04:11:16;;;;;;;4.35;1.70;;;;;;;;;;5106516;28;20328;-62
2023/12/05 04:13:43;;;;;;;6.05;1.58;;;;;;;;;;5106382;28;20024;-61
2023/12/05 04:16:12;;;;;;;5.13;1.98;;;;;;;;;;5106252;28;20024;-61
2023/12/05 04:18:38;;;;;;;4.82;2.30;;;;;;;;;;5106086;28;20036;-62
2023/12/05 04:21:05;;;;;;;4.80;3.15;;;;;;;;;;5106063;28;20040;-64
2023/12/05 04:23:33;;;;;;;6.53;2.78;;;;;;;;;;5105964;28;20036;-63
2023/12/05 04:26:00;;;;;;;4.38;2.50;;;;;;;;;;5105931;28;20107;-62
2023/12/05 04:28:28;;;;;;;8.27;2.80;;;;;;;;;;5105949;28;20047;-64
2023/12/05 04:30:56;;;;;;;5.88;2.55;;;;;;;;;;5105783;28;20023;-63
2023/12/05 04:33:23;;;;;;;6.75;2.80;;;;;;;;;;5105548;28;20032;-62
2023/12/05 04:35:49;;;;;;;6.70;2.58;;;;;;;;;;5105994;28;20024;-62
2023/12/05 04:38:18;;;;;;;7.43;2.50;;;;;;;;;;5105586;28;20039;-63
2023/12/05 04:40:44;;;;;;;6.70;2.97;;;;;;;;;;5105934;28;20020;-62
2023/12/05 04:43:11;;;;;;;5.82;2.50;;;;;;;;;;5105321;28;20087;-61
2023/12/05 04:45:40;;;;;;;4.65;2.55;;;;;;;;;;5105860;28;20024;-61
2023/12/05 04:48:06;;;;;;;3.63;2.30;;;;;;;;;;5105410;28;20016;-61
2023/12/05 04:50:33;;;;;;;5.57;2.63;;;;;;;;;;5105772;28;20020;-62
2023/12/05 04:52:59;;;;;;;3.53;2.00;;;;;;;;;;5105534;28;20046;-61
2023/12/05 04:55:26;;;;;;;6.80;2.45;;;;;;;;;;5105820;28;20035;-62
2023/12/05 04:57:53;;;;;;;6.07;2.15;;;;;;;;;;5105382;28;20260;-61
2023/12/05 05:00:21;;;;;;;6.30;2.08;;;;;;;;;;5105831;28;20058;-62
2023/12/05 05:02:47;;;;;;;3.25;2.17;;;;;;;;;;5125361;28;20088;-62
2023/12/05 05:05:14;;;;;;;4.45;1.85;;;;;;;;;;5126023;28;20024;-63
2023/12/05 05:07:41;;;;;;;4.22;1.83;;;;;;;;;;5125527;28;20016;-62
2023/12/05 05:10:08;;;;;;;7.75;2.08;;;;;;;;;;5125716;28;20189;-62
2023/12/05 05:12:34;;;;;;;8.60;2.08;;;;;;;;;;5117056;28;20016;-62
2023/12/05 05:15:01;;;;;;;5.53;2.10;;;;;;;;;;5125837;28;20226;-62
2023/12/05 05:17:28;;;;;;;2.17;1.67;;;;;;;;;;5125278;28;20342;-63
2023/12/05 05:19:55;;;;;;;4.20;1.70;;;;;;;;;;5125364;28;20189;-61
2023/12/05 05:22:22;;;;;;;4.90;1.60;;;;;;;;;;5125202;28;20030;-62
2023/12/05 05:24:48;;;;;;;2.08;1.40;;;;;;;;;;5125301;28;20043;-61
2023/12/05 05:27:15;;;;;;;3.67;1.80;;;;;;;;;;5125166;28;20369;-62
2023/12/05 05:29:42;;;;;;;3.47;1.90;;;;;;;;;;5125568;28;20024;-63
2023/12/05 05:32:08;;;;;;;3.60;1.75;;;;;;;;;;5125020;28;20024;-62
2023/12/05 05:34:35;;;;;;;3.65;1.88;;;;;;;;;;5117047;28;20028;-62
2023/12/05 05:37:02;;;;;;;4.55;1.60;;;;;;;;;;5125015;28;20207;-61
2023/12/05 05:39:29;;;;;;;2.42;1.70;;;;;;;;;;5125184;28;20036;-62
2023/12/05 05:41:55;;;;;;;3.63;1.60;;;;;;;;;;5125016;28;20024;-63
2023/12/05 05:44:22;;;;;;;2.50;1.55;;;;;;;;;;5125239;28;20068;-63
2023/12/05 05:46:49;;;;;;;3.28;1.70;;;;;;;;;;5124725;28;20069;-62
2023/12/05 05:49:15;;;;;;;2.72;1.67;;;;;;;;;;5125177;28;20027;-61
2023/12/05 05:51:42;;;;;;;4.45;1.95;;;;;;;;;;5124774;28;20079;-62
2023/12/05 05:54:09;;;;;;;5.35;1.90;;;;;;;;;;5124867;28;20059;-63
2023/12/05 05:56:42;;;;;;;3.38;1.70;;;;;;;;;;5125180;28;20303;-63
2023/12/05 05:59:08;;;;;;;2.45;1.52;;;;;;;;;;5125000;28;20334;-61
2023/12/05 06:01:35;;;;;;;2.60;1.65;;;;;;;;;;5116482;28;20043;-61
2023/12/05 06:04:02;;;;;;;3.70;1.85;;;;;;;;;;5124574;28;20051;-60
2023/12/05 06:06:29;;;;;;;3.13;1.58;;;;;;;;;;5124620;28;20011;-61
2023/12/05 06:08:56;;;;;;;3.15;1.42;;;;;;;;;;5124908;28;20159;-62
2023/12/05 06:11:22;;;;;;;3.92;1.73;;;;;;;;;;5117051;28;20016;-60
2023/12/05 06:13:50;;;;;;;2.17;1.40;;;;;;;;;;5113221;28;20038;-60
2023/12/05 06:16:17;;;;;;;5.20;1.75;;;;;;;;;;5124585;28;20319;-62
2023/12/05 06:18:44;;;;;;;2.33;1.42;;;;;;;;;;5124679;28;20023;-61
2023/12/05 06:21:10;;;;;;;3.22;1.48;;;;;;;;;;5124231;28;20066;-63
2023/12/05 06:23:38;;;;;;;2.72;1.50;;;;;;;;;;5124284;28;20180;-60
2023/12/05 06:26:05;;;;;;;2.30;1.50;;;;;;;;;;5124548;28;20079;-61
2023/12/05 06:28:32;;;;;;;3.92;1.70;;;;;;;;;;5124612;28;20035;-63
2023/12/05 06:30:59;;;;;;;3.17;1.10;;;;;;;;;;5124287;28;20047;-62
2023/12/05 06:33:26;;;;;;;2.75;1.52;;;;;;;;;;5126534;28;20077;-62
2023/12/05 06:35:54;;;;;;;4.50;1.65;;;;;;;;;;5128688;28;20016;-62
2023/12/05 06:38:21;;;;;;;3.15;1.60;;;;;;;;;;5128475;28;20027;-64
2023/12/05 06:40:47;;;;;;;2.15;1.23;;;;;;;;;;5128728;28;20043;-61
2023/12/05 06:43:14;;;;;;;2.22;1.35;;;;;;;;;;5128470;28;20227;-63
2023/12/05 06:45:41;;;;;;;2.45;1.38;;;;;;;;;;5128320;28;20039;-61
2023/12/05 06:48:07;;;;;;;3.30;1.50;;;;;;;;;;5128480;28;20012;-62
2023/12/05 06:50:35;;;;;;;1.92;1.30;;;;;;;;;;5128223;28;20023;-61
2023/12/05 06:53:02;;;;;;;2.42;1.35;;;;;;;;;;5128090;28;20039;-59
2023/12/05 06:55:29;;;;;;;3.63;1.63;;;;;;;;;;5128683;28;20051;-63
2023/12/05 06:57:55;;;;;;;3.70;1.20;;;;;;;;;;5128296;28;20035;-61
2023/12/05 07:00:22;;;;;;;2.88;1.50;;;;;;;;;;5128512;28;20027;-62
2023/12/05 07:02:49;;;;;;;3.42;1.45;;;;;;;;;;5127982;28;20343;-64
2023/12/05 07:05:16;;;;;;;2.60;1.33;;;;;;;;;;5128441;28;20023;-66
2023/12/05 07:07:42;;;;;;;3.13;1.33;;;;;;;;;;5127993;28;20031;-65
2023/12/05 07:10:09;;;;;;;3.05;1.20;;;;;;;;;;5128230;28;20020;-62
2023/12/05 07:12:37;;;;;;;1.92;1.20;;;;;;;;;;5128059;28;20122;-62
2023/12/05 07:15:05;;;;;;;2.28;1.50;;;;;;;;;;5128242;28;20040;-62
2023/12/05 07:17:31;;;;;;;1.35;1.23;;;;;;;;;;5127940;28;20434;-65
2023/12/05 07:19:58;;;;;;;2.35;1.40;;;;;;;;;;5127864;28;20035;-63
2023/12/05 07:22:25;;;;;;;2.50;1.40;;;;;;;;;;5127745;28;20027;-63
2023/12/05 07:24:51;;;;;;;3.40;1.52;;;;;;;;;;5127765;28;20034;-65
2023/12/05 07:27:18;;;;;;;3.67;1.45;;;;;;;;;;5127730;28;20254;-65
2023/12/05 07:29:45;;;;;;;2.50;1.45;;;;;;;;;;5128274;28;20039;-64
2023/12/05 07:32:11;;;;;;;3.20;1.35;;;;;;;;;;5127688;28;20020;-64
2023/12/05 07:34:39;;;;;;;1.38;1.20;;;;;;;;;;5127711;28;20061;-64
2023/12/05 07:37:05;;;;;;;3.38;1.50;;;;;;;;;;5127312;28;20072;-63
2023/12/05 07:39:32;;;;;;;2.40;1.52;;;;;;;;;;5127479;28;20324;-64
2023/12/05 07:41:59;;;;;;;2.75;1.63;;;;;;;;;;5127335;28;20020;-65
2023/12/05 07:44:26;;;;;;;2.58;1.40;;;;;;;;;;5127025;28;20031;-65
2023/12/05 07:46:53;;;;;;;2.15;1.40;;;;;;;;;;5127103;28;20022;-64
2023/12/05 07:49:20;;;;;;;2.35;1.40;;;;;;;;;;5127295;28;20065;-63
2023/12/05 07:51:48;;;;;;;2.35;1.75;;;;;;;;;;5127214;28;20337;-62
2023/12/05 07:54:14;;;;;;;1.77;1.42;;;;;;;;;;5127290;28;20058;-65
2023/12/05 07:56:41;;;;;;;2.67;1.52;;;;;;;;;;5127300;28;20015;-67
2023/12/05 07:59:09;;;;;;;3.78;1.38;;;;;;;;;;5127096;28;20032;-63
2023/12/05 08:01:35;;;;;;;4.20;1.85;;;;;;;;;;5118497;28;20024;-62
2023/12/05 08:04:02;;;;;;;6.03;1.77;;;;;;;;;;5127126;28;20023;-64
2023/12/05 08:06:29;;;;;;;2.65;1.80;;;;;;;;;;5126984;28;20303;-65
2023/12/05 08:08:55;;;;;;;4.47;1.40;;;;;;;;;;5126794;28;20047;-65
2023/12/05 08:11:22;;;;;;;3.00;1.60;;;;;;;;;;5126878;28;20016;-63
2023/12/05 08:13:49;;;;;;;5.55;1.73;;;;;;;;;;5126699;28;20027;-63
2023/12/05 08:16:16;;;;;;;2.47;1.67;;;;;;;;;;5126793;28;20215;-65
2023/12/05 08:18:43;;;;;;;3.13;1.58;;;;;;;;;;5126661;28;20030;-65
2023/12/05 08:21:10;;;;;;;2.97;1.73;;;;;;;;;;5126453;28;20359;-63
2023/12/05 08:23:37;;;;;;;2.13;1.50;;;;;;;;;;5126460;28;20060;-63
2023/12/05 08:26:04;;;;;;;4.85;1.75;;;;;;;;;;5126416;28;20065;-64
2023/12/05 08:28:32;;;;;;;1.88;1.60;;;;;;;;;;5123402;28;20034;-63
2023/12/05 08:30:58;;;;;;;2.63;1.80;;;;;;;;;;5113731;28;20020;-63
2023/12/05 08:33:25;;;;;;;3.90;1.42;;;;;;;;;;5119106;28;20027;-63
2023/12/05 08:35:52;;;;;;;3.10;1.77;;;;;;;;;;5126178;28;20095;-64
2023/12/05 08:38:18;;;;;;;2.88;1.60;;;;;;;;;;5126110;28;20023;-64
2023/12/05 08:40:45;;;;;;;4.43;2.17;;;;;;;;;;5126367;28;20319;-64
2023/12/05 08:43:12;;;;;;;4.63;1.70;;;;;;;;;;5125943;28;20057;-64
2023/12/05 08:45:38;;;;;;;3.10;1.55;;;;;;;;;;5126150;28;20034;-64
2023/12/05 08:48:06;;;;;;;3.00;1.55;;;;;;;;;;5126204;28;20022;-63
2023/12/05 08:50:34;;;;;;;3.55;1.67;;;;;;;;;;5126391;28;20028;-63
2023/12/05 08:53:02;;;;;;;3.67;2.35;;;;;;;;;;5126202;28;20022;-64
2023/12/05 08:55:43;;;;;;;3.97;2.13;;;;;;;;;;5125374;28;20032;-64
2023/12/05 08:58:10;;;;;;;4.97;2.45;;;;;;;;;;5122994;28;20032;-62
2023/12/05 09:00:37;;;;;;;4.57;2.17;;;;;;;;;;5125757;28;20020;-63
2023/12/05 09:03:04;;;;;;;4.00;2.30;;;;;;;;;;5125723;28;20335;-66
2023/12/05 09:05:31;;;;;;;2.92;1.80;;;;;;;;;;5126011;28;20077;-66
2023/12/05 09:07:57;;;;;;;2.75;1.88;;;;;;;;;;5125541;28;20022;-63
2023/12/05 09:10:24;;;;;;;3.78;1.73;;;;;;;;;;5126137;28;20027;-63
2023/12/05 09:12:51;;;;;;;5.10;2.13;;;;;;;;;;5125578;28;20030;-63
2023/12/05 09:15:17;;;;;;;2.97;1.60;;;;;;;;;;5126195;28;20196;-63
2023/12/05 09:17:44;;;;;;;4.03;2.10;;;;;;;;;;5125377;28;20049;-65
2023/12/05 09:20:11;;;;;;;2.60;1.60;;;;;;;;;;5125181;28;20047;-62
2023/12/05 09:22:37;;;;;;;3.35;1.77;;;;;;;;;;5125267;28;20027;-63
2023/12/05 09:25:04;;;;;;;3.90;1.88;;;;;;;;;;5125850;28;20036;-63
2023/12/05 09:27:31;;;;;;;4.10;2.05;;;;;;;;;;5125403;28;20020;-63
2023/12/05 09:29:57;;;;;;;2.88;1.73;;;;;;;;;;5125463;28;20300;-65
2023/12/05 09:32:24;;;;;;;4.60;2.03;;;;;;;;;;5125429;28;20032;-64
2023/12/05 09:34:51;;;;;;;5.57;2.05;;;;;;;;;;5125503;28;20036;-63
2023/12/05 09:37:18;;;;;;;4.78;2.67;;;;;;;;;;5124855;28;20020;-62
2023/12/05 09:39:44;;;;;;;5.93;2.40;;;;;;;;;;5125393;28;20032;-63
2023/12/05 09:42:13;;;;;;;5.40;2.38;;;;;;;;;;5125070;28;20073;-63
2023/12/05 09:44:45;;;;;;;5.57;2.42;;;;;;;;;;5124976;28;20031;-62
2023/12/05 09:47:12;;;;;;;6.35;2.50;;;;;;;;;;5124926;28;20196;-64
2023/12/05 09:49:40;;;;;;;8.63;2.08;;;;;;;;;;5125276;28;20207;-63
2023/12/05 09:52:07;;;;;;;10.68;2.47;;;;;;;;;;5124588;28;20051;-62
2023/12/05 09:54:34;;;;;;;6.72;2.20;;;;;;;;;;5125178;28;20095;-62
2023/12/05 09:57:01;;;;;;;9.50;2.25;;;;;;;;;;5124683;28;20043;-64
2023/12/05 09:59:27;;;;;;;7.00;2.10;;;;;;;;;;5124871;28;20087;-63
2023/12/05 10:01:56;;;;;;;3.60;2.13;;;;;;;;;;5124828;28;20031;-62
2023/12/05 10:04:23;;;;;;;7.65;1.90;;;;;;;;;;5125105;28;20331;-64
2023/12/05 10:06:51;;;;;;;5.10;1.77;;;;;;;;;;5124356;28;20051;-64
2023/12/05 10:09:20;;;;;;;7.18;1.98;;;;;;;;;;5124848;28;20036;-62
2023/12/05 10:11:47;;;;;;;3.15;1.92;;;;;;;;;;5124597;28;20050;-62
2023/12/05 10:14:14;;;;;;;6.30;1.90;;;;;;;;;;5124645;28;20038;-62
2023/12/05 10:16:40;;;;;;;5.63;1.70;;;;;;;;;;5124597;28;20081;-62
2023/12/05 10:19:09;;;;;;;6.75;1.90;;;;;;;;;;5124684;28;20031;-62
2023/12/05 10:21:37;;;;;;;7.38;1.98;;;;;;;;;;5124408;28;20085;-62
2023/12/05 10:24:04;;;;;;;9.18;1.63;;;;;;;;;;5124600;28;20343;-62
2023/12/05 10:26:31;;;;;;;9.35;2.20;;;;;;;;;;5124450;28;20254;-63
2023/12/05 10:28:59;;;;;;;8.23;1.70;;;;;;;;;;5140417;28;20026;-63
2023/12/05 10:31:26;;;;;;;8.02;2.28;;;;;;;;;;5145194;28;20023;-63
2023/12/05 10:34:04;;;;;;;9.77;2.20;;;;;;;;;;5145061;28;20037;-63
2023/12/05 10:36:31;;;;;;;10.80;1.98;;;;;;;;;;5144908;28;20027;-65
2023/12/05 10:38:58;;;;;;;11.15;2.42;;;;;;;;;;5128492;28;20031;-64
2023/12/05 10:41:28;;;;;;;11.88;2.22;;;;;;;;;;5124432;28;20056;-63
2023/12/05 10:43:58;;;;;;;12.30;2.35;;;;;;;;;;5124348;28;20035;-62
2023/12/05 10:46:28;;;;;;;11.52;2.10;;;;;;;;;;5124167;28;20016;-63
2023/12/05 10:48:55;;;;;;;12.27;2.42;;;;;;;;;;5124219;28;20061;-63
2023/12/05 10:51:26;;;;;;;9.88;2.15;;;;;;;;;;5124037;28;20047;-64
2023/12/05 10:53:55;;;;;;;11.63;2.60;;;;;;;;;;5124144;28;20032;-66
2023/12/05 10:56:23;;;;;;;22.75;3.22;;;;;;;;;;5124062;28;20028;-67
2023/12/05 10:58:52;;;;;;;15.85;3.38;;;;;;;;;;5124135;28;20055;-69
2023/12/05 11:01:21;;;;;;;20.73;3.70;;;;;;;;;;5129020;28;20346;-63
2023/12/05 11:03:49;;;;;;;14.77;3.53;;;;;;;;;;5134307;28;20219;-64
2023/12/05 11:06:15;;;;;;;11.18;3.60;;;;;;;;;;5144699;28;20027;-64
2023/12/05 11:08:42;;;;;;;11.57;3.90;;;;;;;;;;5130172;28;20012;-62
2023/12/05 11:11:10;;;;;;;17.77;4.35;;;;;;;;;;5116947;28;20028;-62
2023/12/05 11:13:38;;;;;;;14.82;5.60;;;;;;;;;;5115573;28;20028;-62
2023/12/05 11:16:25;;;;;;;28.88;8.38;;;;;;;;;;5120656;28;20027;-63
2023/12/05 11:18:58;;;;;;;57.60;24.33;;;;;;;;;;5113557;28;20079;-64
2023/12/05 11:21:31;;;;;;;20.48;10.60;;;;;;;;;;5123601;28;20073;-65
2023/12/05 11:24:13;;;;;;;33.83;15.27;;;;;;;;;;5122131;28;20044;-64
2023/12/05 11:26:49;;;;;;;35.72;15.40;;;;;;;;;;5114817;28;20045;-63
2023/12/05 11:29:34;;;;;;;20.13;9.88;;;;;;;;;;5122011;28;20028;-64
2023/12/05 11:32:25;;;;;;;54.20;27.58;;;;;;;;;;5124426;28;20062;-57
2023/12/05 11:35:10;;;;;;;194.35;113.95;;;;;;;;;;5140716;27;20046;-59
2023/12/05 11:37:43;;;;;;;121.57;71.60;;;;;;;;;;5148086;27;20031;-55
2023/12/05 11:40:09;;;;;;;55.95;25.60;;;;;;;;;;5148694;27;20031;-53
2023/12/05 11:42:36;;;;;;;66.70;39.47;;;;;;;;;;5148469;27;20023;-53
2023/12/05 11:45:22;;;;;;;49.50;31.30;;;;;;;;;;5149240;27;20026;-53
2023/12/05 11:47:50;;;;;;;47.78;26.73;;;;;;;;;;5146337;27;20371;-51
2023/12/05 11:50:17;;;;;;;40.90;23.20;;;;;;;;;;5146128;27;20200;-51
2023/12/05 11:52:45;;;;;;;33.22;18.58;;;;;;;;;;5147160;27;20015;-49
2023/12/05 11:55:13;;;;;;;31.42;17.55;;;;;;;;;;5147410;27;20038;-49
2023/12/05 11:57:40;;;;;;;37.00;14.77;;;;;;;;;;5147448;27;20066;-48
2023/12/05 12:00:10;;;;;;;23.27;12.68;;;;;;;;;;5147020;27;20321;-50
2023/12/05 12:02:39;;;;;;;26.50;10.88;;;;;;;;;;5147705;27;20027;-51
2023/12/05 12:05:06;;;;;;;26.42;10.38;;;;;;;;;;5148509;27;20321;-52
2023/12/05 12:07:42;;;;;;;23.10;9.57;;;;;;;;;;5148247;27;20025;-53
2023/12/05 12:10:10;;;;;;;18.75;8.02;;;;;;;;;;5148813;27;20027;-50
2023/12/05 12:12:37;;;;;;;19.58;7.75;;;;;;;;;;5148011;27;20350;-52
2023/12/05 12:15:04;;;;;;;15.98;6.53;;;;;;;;;;5148136;27;20086;-53
2023/12/05 12:17:30;;;;;;;16.58;6.00;;;;;;;;;;5147494;27;20071;-54
2023/12/05 12:19:57;;;;;;;15.20;5.18;;;;;;;;;;5147761;27;20043;-52
2023/12/05 12:22:24;;;;;;;11.05;4.63;;;;;;;;;;5147626;27;20029;-54
2023/12/05 12:24:50;;;;;;;16.27;5.43;;;;;;;;;;5147892;27;20047;-52
2023/12/05 12:27:17;;;;;;;11.73;4.82;;;;;;;;;;5147885;27;20023;-51
2023/12/05 12:29:53;;;;;;;12.60;4.10;;;;;;;;;;5147770;27;20084;-54
2023/12/05 12:32:20;;;;;;;12.13;3.80;;;;;;;;;;5147632;27;20049;-55
2023/12/05 12:34:48;;;;;;;16.63;4.68;;;;;;;;;;5147254;27;20027;-52
2023/12/05 12:37:15;;;;;;;10.35;3.70;;;;;;;;;;5147030;27;20011;-52
2023/12/05 12:39:43;;;;;;;7.50;3.20;;;;;;;;;;5147532;27;20053;-52
2023/12/05 12:42:13;;;;;;;10.73;3.40;;;;;;;;;;5147317;27;20030;-51
2023/12/05 12:44:39;;;;;;;7.47;3.05;;;;;;;;;;5147641;27;20159;-53
2023/12/05 12:47:06;;;;;;;8.32;2.97;;;;;;;;;;5146899;27;20015;-58
2023/12/05 12:49:33;;;;;;;4.18;2.63;;;;;;;;;;5147461;27;20086;-53
2023/12/05 12:51:59;;;;;;;11.32;3.20;;;;;;;;;;5146652;27;20311;-55
2023/12/05 12:54:26;;;;;;;6.75;3.05;;;;;;;;;;5146797;27;20119;-52
2023/12/05 12:56:54;;;;;;;8.02;3.20;;;;;;;;;;5146763;27;20031;-52
2023/12/05 12:59:22;;;;;;;8.18;3.45;;;;;;;;;;5146594;27;20023;-53
2023/12/05 13:01:51;;;;;;;9.68;3.38;;;;;;;;;;5146682;27;20031;-49
2023/12/05 13:04:18;;;;;;;6.85;2.90;;;;;;;;;;5146947;27;20219;-49
2023/12/05 13:06:48;;;;;;;11.98;2.97;;;;;;;;;;5146629;27;20011;-49
2023/12/05 13:09:19;;;;;;;12.23;3.38;;;;;;;;;;5146754;27;20038;-50
2023/12/05 13:11:48;;;;;;;11.07;3.00;;;;;;;;;;5146282;27;20091;-52
2023/12/05 13:14:17;;;;;;;9.45;3.20;;;;;;;;;;5146845;27;20072;-51
2023/12/05 13:16:44;;;;;;;9.65;2.67;;;;;;;;;;5146329;27;20064;-54
2023/12/05 13:19:23;;;;;;;8.35;2.67;;;;;;;;;;5146342;27;20299;-50
2023/12/05 13:21:52;;;;;;;7.30;2.70;;;;;;;;;;5146459;27;20348;-52
2023/12/05 13:24:21;;;;;;;8.35;2.53;;;;;;;;;;5146565;27;20102;-54
2023/12/05 13:26:48;;;;;;;6.70;2.42;;;;;;;;;;5146139;27;20019;-57
2023/12/05 13:29:19;;;;;;;10.63;2.53;;;;;;;;;;5146482;27;20111;-50
2023/12/05 13:31:46;;;;;;;6.30;2.30;;;;;;;;;;5146188;27;20027;-53
2023/12/05 13:34:14;;;;;;;5.53;2.53;;;;;;;;;;5146026;27;20019;-59
2023/12/05 13:36:41;;;;;;;7.65;2.55;;;;;;;;;;5145756;27;20214;-53
2023/12/05 13:39:08;;;;;;;9.75;2.50;;;;;;;;;;5146140;27;20090;-52
2023/12/05 13:41:36;;;;;;;11.25;2.55;;;;;;;;;;5145494;27;20019;-55
2023/12/05 13:44:03;;;;;;;4.40;2.30;;;;;;;;;;5146038;27;20098;-56
2023/12/05 13:46:30;;;;;;;6.45;1.95;;;;;;;;;;5145652;27;20019;-52
2023/12/05 13:49:04;;;;;;;6.28;2.28;;;;;;;;;;5145735;27;20023;-53
2023/12/05 13:51:32;;;;;;;11.77;2.47;;;;;;;;;;5146180;27;20029;-54
2023/12/05 13:54:00;;;;;;;7.88;2.20;;;;;;;;;;5146064;27;20035;-52
2023/12/05 13:56:27;;;;;;;7.88;2.00;;;;;;;;;;5145775;27;20098;-52
2023/12/05 13:58:54;;;;;;;7.40;2.10;;;;;;;;;;5145781;27;20036;-52
2023/12/05 14:01:21;;;;;;;7.65;2.13;;;;;;;;;;5145418;27;20099;-53
2023/12/05 14:03:47;;;;;;;8.25;2.40;;;;;;;;;;5145520;27;20248;-52
2023/12/05 14:06:14;;;;;;;4.72;2.20;;;;;;;;;;5145612;27;20011;-55
2023/12/05 14:08:41;;;;;;;6.68;2.58;;;;;;;;;;5145408;27;20035;-52
2023/12/05 14:11:07;;;;;;;10.30;2.40;;;;;;;;;;5145255;27;20023;-53
2023/12/05 14:13:34;;;;;;;5.75;2.40;;;;;;;;;;5145411;27;20027;-53
2023/12/05 14:16:02;;;;;;;5.10;2.17;;;;;;;;;;5144979;27;20019;-51
2023/12/05 14:18:29;;;;;;;8.23;2.22;;;;;;;;;;5145343;27;20038;-52
2023/12/05 14:20:58;;;;;;;6.03;2.15;;;;;;;;;;5145031;27;20058;-52
2023/12/05 14:23:25;;;;;;;5.32;2.53;;;;;;;;;;5145209;28;20280;-51
2023/12/05 14:25:52;;;;;;;5.15;2.10;;;;;;;;;;5145234;28;20037;-54
2023/12/05 14:28:19;;;;;;;10.02;2.65;;;;;;;;;;5145070;28;20334;-55
2023/12/05 14:30:46;;;;;;;7.40;2.50;;;;;;;;;;5145237;28;20031;-54
2023/12/05 14:33:13;;;;;;;4.80;2.00;;;;;;;;;;5144933;28;20027;-51
2023/12/05 14:35:40;;;;;;;6.97;2.40;;;;;;;;;;5145106;28;20027;-50
2023/12/05 14:38:09;;;;;;;8.60;2.47;;;;;;;;;;5145518;28;20023;-54
2023/12/05 14:40:35;;;;;;;8.65;2.50;;;;;;;;;;5145074;28;20027;-50
2023/12/05 14:43:02;;;;;;;8.80;2.60;;;;;;;;;;5145271;28;20023;-50